createdAt,value
2022-08-11T00:00:10.704Z,969.34
2022-08-11T00:01:11.003Z,969.31
2022-08-11T00:02:15.314Z,969.31
2022-08-11T00:03:11.607Z,969.32
2022-08-11T00:04:11.839Z,969.33
2022-08-11T00:05:12.130Z,969.35
2022-08-11T00:06:12.424Z,969.36
2022-08-11T00:07:12.709Z,969.40
2022-08-11T00:08:13.034Z,969.36
2022-08-11T00:09:13.330Z,969.41
2022-08-11T00:10:13.618Z,969.40
2022-08-11T00:11:13.882Z,969.38
2022-08-11T00:12:14.161Z,969.43
2022-08-11T00:13:14.963Z,969.42
2022-08-11T00:14:14.782Z,969.41
2022-08-11T00:15:15.072Z,969.41
2022-08-11T00:16:16.891Z,969.43
2022-08-11T00:17:15.677Z,969.40
2022-08-11T00:18:15.967Z,969.41
2022-08-11T00:19:16.266Z,969.40
2022-08-11T00:20:17.572Z,969.39
2022-08-11T00:21:16.825Z,969.41
2022-08-11T00:22:17.145Z,969.37
2022-08-11T00:23:18.462Z,969.38
2022-08-11T00:24:17.685Z,969.40
2022-08-11T00:25:18.028Z,969.37
2022-08-11T00:26:18.315Z,969.37
2022-08-11T00:27:18.593Z,969.37
2022-08-11T00:28:18.877Z,969.38
2022-08-11T00:29:19.196Z,969.37
2022-08-11T00:30:19.495Z,969.38
2022-08-11T00:31:19.787Z,969.36
2022-08-11T00:32:20.056Z,969.38
2022-08-11T00:33:20.344Z,969.35
2022-08-11T00:34:21.666Z,969.32
2022-08-11T00:35:53.664Z,969.36
2022-08-11T00:36:25.615Z,969.31
2022-08-11T00:37:21.422Z,969.33
2022-08-11T00:38:21.715Z,969.31
2022-08-11T00:39:28.953Z,969.34
2022-08-11T00:40:23.356Z,969.33
2022-08-11T00:41:22.616Z,969.34
2022-08-11T00:42:22.945Z,969.31
2022-08-11T00:43:23.235Z,969.32
2022-08-11T00:44:23.507Z,969.31
2022-08-11T00:45:23.785Z,969.32
2022-08-11T00:46:24.094Z,969.29
2022-08-11T00:47:24.366Z,969.28
2022-08-11T00:48:24.651Z,969.24
2022-08-11T00:49:24.914Z,969.29
2022-08-11T00:50:25.207Z,969.28
2022-08-11T00:51:25.516Z,969.26
2022-08-11T00:52:25.825Z,969.23
2022-08-11T02:57:13.825Z,969.10
2022-08-11T02:58:14.152Z,969.10
2022-08-11T02:59:14.426Z,969.11
2022-08-11T03:00:14.723Z,969.08
2022-08-11T03:01:15.051Z,969.10
2022-08-11T03:02:15.255Z,969.07
2022-08-11T03:03:15.554Z,969.05
2022-08-11T03:04:15.907Z,969.08
2022-08-11T03:05:16.197Z,969.08
2022-08-11T03:06:16.464Z,969.03
2022-08-11T03:07:28.507Z,969.08
2022-08-11T03:08:18.064Z,969.01
2022-08-11T03:09:17.294Z,969.04
2022-08-11T03:10:17.587Z,969.07
2022-08-11T03:11:17.873Z,969.05
2022-08-11T03:12:18.205Z,969.05
2022-08-11T03:13:19.458Z,969.03
2022-08-11T03:14:18.810Z,969.03
2022-08-11T03:15:19.105Z,969.02
2022-08-11T03:16:19.415Z,969.04
2022-08-11T03:17:19.739Z,969.05
2022-08-11T03:18:20.054Z,969.03
2022-08-11T03:19:20.360Z,969.09
2022-08-11T03:20:20.664Z,969.06
2022-08-11T03:21:20.974Z,969.06
2022-08-11T03:22:21.299Z,969.13
2022-08-11T03:23:21.611Z,969.10
2022-08-11T03:24:21.925Z,969.12
2022-08-11T03:25:22.218Z,969.10
2022-08-11T03:26:22.480Z,969.11
2022-08-11T03:27:22.795Z,969.06
2022-08-11T03:28:23.118Z,969.10
2022-08-11T03:29:25.146Z,969.12
2022-08-11T03:30:23.726Z,969.13
2022-08-11T03:31:24.018Z,969.15
2022-08-11T03:32:24.304Z,969.15
2022-08-11T03:33:24.615Z,969.15
2022-08-11T03:34:25.400Z,969.19
2022-08-11T03:35:25.147Z,969.15
2022-08-11T03:36:25.436Z,969.16
2022-08-11T03:37:25.715Z,969.14
2022-08-11T03:38:30.440Z,969.15
2022-08-11T03:39:26.324Z,969.16
2022-08-11T03:40:26.549Z,969.16
2022-08-11T03:42:02.464Z,969.20
2022-08-11T03:42:28.287Z,969.18
2022-08-11T03:43:27.451Z,969.18
2022-08-11T03:44:27.740Z,969.14
2022-08-11T03:45:28.037Z,969.20
2022-08-11T03:46:28.315Z,969.20
2022-08-11T03:47:28.655Z,969.20
2022-08-11T03:48:28.973Z,969.21
2022-08-11T03:49:29.272Z,969.22
2022-08-11T03:50:29.535Z,969.20
2022-08-11T03:51:44.936Z,969.16
2022-08-11T03:52:31.130Z,969.15
2022-08-11T03:53:30.366Z,969.17
2022-08-11T03:54:30.669Z,969.18
2022-08-11T03:55:30.957Z,969.19
2022-08-11T03:56:31.245Z,969.16
2022-08-11T03:57:31.580Z,969.16
2022-08-11T03:58:31.857Z,969.17
2022-08-11T03:59:32.126Z,969.17
2022-08-11T04:00:32.441Z,969.17
2022-08-11T04:01:32.783Z,969.12
2022-08-11T04:02:33.099Z,969.13
2022-08-11T04:03:33.305Z,969.10
2022-08-11T04:04:33.585Z,969.09
2022-08-11T04:05:33.897Z,969.06
2022-08-11T04:06:34.200Z,969.12
2022-08-11T04:07:34.545Z,969.12
2022-08-11T04:08:34.735Z,969.16
2022-08-11T04:09:35.037Z,969.16
2022-08-11T04:10:35.346Z,969.17
2022-08-11T04:11:35.668Z,969.17
2022-08-11T04:12:37.104Z,969.19
2022-08-11T04:13:36.195Z,969.17
2022-08-11T04:14:36.494Z,969.19
2022-08-11T04:15:36.812Z,969.16
2022-08-11T04:16:37.126Z,969.19
2022-08-11T04:17:37.421Z,969.16
2022-08-11T04:18:37.718Z,969.17
2022-08-11T04:19:37.998Z,969.15
2022-08-11T04:20:38.346Z,969.16
2022-08-11T04:21:38.636Z,969.15
2022-08-11T04:22:39.181Z,969.17
2022-08-11T04:24:33.071Z,969.13
2022-08-11T04:24:40.474Z,969.15
2022-08-11T04:25:57.604Z,969.18
2022-08-11T04:26:41.039Z,969.17
2022-08-11T04:27:40.299Z,969.17
2022-08-11T04:28:43.106Z,969.23
2022-08-11T04:30:00.924Z,969.22
2022-08-11T04:30:42.122Z,969.22
2022-08-11T04:31:44.244Z,969.20
2022-08-11T04:32:42.786Z,969.20
2022-08-11T04:33:42.042Z,969.24
2022-08-11T04:34:42.331Z,969.26
2022-08-11T04:35:44.937Z,969.25
2022-08-11T04:36:43.945Z,969.24
2022-08-11T04:37:43.179Z,969.28
2022-08-11T04:38:43.457Z,969.24
2022-08-11T04:39:44.646Z,969.27
2022-08-11T04:40:44.064Z,969.28
2022-08-11T04:41:44.363Z,969.26
2022-08-11T04:42:44.637Z,969.23
2022-08-11T04:44:05.264Z,969.22
2022-08-11T04:44:46.268Z,969.25
2022-08-11T04:45:45.527Z,969.24
2022-08-11T04:46:45.846Z,969.27
2022-08-11T04:48:03.498Z,969.27
2022-08-11T04:48:47.421Z,969.28
2022-08-11T04:49:46.772Z,969.28
2022-08-11T04:51:08.837Z,969.28
2022-08-11T04:51:48.392Z,969.27
2022-08-11T04:52:47.759Z,969.26
2022-08-11T04:53:48.042Z,969.25
2022-08-11T04:54:48.325Z,969.28
2022-08-11T04:55:48.628Z,969.29
2022-08-11T04:56:48.957Z,969.28
2022-08-11T04:57:49.293Z,969.36
2022-08-11T04:58:49.621Z,969.33
2022-08-11T04:59:49.925Z,969.35
2022-08-11T05:00:50.223Z,969.33
2022-08-11T05:01:50.568Z,969.34
2022-08-11T05:02:50.856Z,969.35
2022-08-11T05:03:51.145Z,969.36
2022-08-11T05:04:51.432Z,969.40
2022-08-11T05:05:56.253Z,969.35
2022-08-11T05:06:53.007Z,969.37
2022-08-11T05:07:52.244Z,969.44
2022-08-11T05:08:52.575Z,969.41
2022-08-11T05:09:52.896Z,969.49
2022-08-11T05:10:53.188Z,969.44
2022-08-11T05:11:57.882Z,969.45
2022-08-11T05:12:54.809Z,969.49
2022-08-11T05:13:54.039Z,969.48
2022-08-11T05:14:54.332Z,969.48
2022-08-11T05:15:54.640Z,969.51
2022-08-11T05:16:58.810Z,969.46
2022-08-11T05:17:55.157Z,969.50
2022-08-11T05:18:55.475Z,969.43
2022-08-11T05:19:55.779Z,969.48
2022-08-11T05:20:56.078Z,969.42
2022-08-11T05:21:57.369Z,969.46
2022-08-11T05:22:56.675Z,969.47
2022-08-11T05:24:00.794Z,969.42
2022-08-11T05:24:57.272Z,969.40
2022-08-11T05:26:42.847Z,969.46
2022-08-11T05:26:58.907Z,969.47
2022-08-11T05:27:58.329Z,969.52
2022-08-11T05:28:58.406Z,969.49
2022-08-11T05:29:58.716Z,969.50
2022-08-11T05:30:59.019Z,969.45
2022-08-11T05:31:59.312Z,969.50
2022-08-11T05:33:02.219Z,969.52
2022-08-11T05:33:59.899Z,969.51
2022-08-11T05:35:00.233Z,969.50
2022-08-11T05:36:03.154Z,969.54
2022-08-11T05:37:23.930Z,969.52
2022-08-11T05:38:02.075Z,969.56
2022-08-11T05:39:01.310Z,969.57
2022-08-11T05:40:01.743Z,969.60
2022-08-11T05:41:01.927Z,969.57
2022-08-11T05:42:02.218Z,969.56
2022-08-11T05:43:02.550Z,969.57
2022-08-11T05:44:20.214Z,969.58
2022-08-11T05:45:04.156Z,969.54
2022-08-11T05:46:07.034Z,969.53
2022-08-11T05:47:03.748Z,969.56
2022-08-11T05:48:04.035Z,969.58
2022-08-11T05:49:04.366Z,969.55
2022-08-11T05:50:04.561Z,969.56
2022-08-11T05:51:10.310Z,969.52
2022-08-11T05:52:12.694Z,969.52
2022-08-11T05:53:08.920Z,969.51
2022-08-11T05:54:05.654Z,969.49
2022-08-11T05:55:07.424Z,969.43
2022-08-11T05:56:06.250Z,969.50
2022-08-11T05:57:06.594Z,969.51
2022-08-11T05:58:06.899Z,969.50
2022-08-11T05:59:07.182Z,969.49
2022-08-11T06:00:07.465Z,969.51
2022-08-11T06:01:07.883Z,969.51
2022-08-11T06:02:08.058Z,969.56
2022-08-11T06:03:08.365Z,969.53
2022-08-11T06:04:08.653Z,969.58
2022-08-11T06:05:08.948Z,969.56
2022-08-11T06:06:09.216Z,969.54
2022-08-11T06:07:09.531Z,969.58
2022-08-11T06:08:09.812Z,969.57
2022-08-11T06:09:10.086Z,969.61
2022-08-11T06:10:10.381Z,969.62
2022-08-11T06:11:10.699Z,969.62
2022-08-11T06:12:10.987Z,969.65
2022-08-11T06:13:11.256Z,969.64
2022-08-11T06:14:11.523Z,969.62
2022-08-11T06:15:11.827Z,969.62
2022-08-11T06:16:12.145Z,969.64
2022-08-11T06:17:12.450Z,969.61
2022-08-11T06:18:12.756Z,969.63
2022-08-11T06:19:13.066Z,969.58
2022-08-11T06:20:13.376Z,969.55
2022-08-11T06:21:13.679Z,969.55
2022-08-11T06:22:13.958Z,969.60
2022-08-11T06:23:14.271Z,969.56
2022-08-11T06:24:14.599Z,969.60
2022-08-11T06:25:19.323Z,969.61
2022-08-11T06:26:15.201Z,969.55
2022-08-11T06:27:15.507Z,969.56
2022-08-11T06:28:20.357Z,969.51
2022-08-11T06:29:17.119Z,969.56
2022-08-11T06:30:16.396Z,969.52
2022-08-11T06:31:16.962Z,969.56
2022-08-11T06:32:16.933Z,969.52
2022-08-11T06:33:17.223Z,969.55
2022-08-11T06:34:27.508Z,969.55
2022-08-11T06:35:18.849Z,969.56
2022-08-11T06:36:18.086Z,969.51
2022-08-11T06:37:18.381Z,969.51
2022-08-11T06:38:18.694Z,969.51
2022-08-11T06:39:19.031Z,969.49
2022-08-11T06:40:19.230Z,969.49
2022-08-11T06:41:19.533Z,969.51
2022-08-11T06:42:19.817Z,969.52
2022-08-11T06:43:20.141Z,969.52
2022-08-11T06:44:20.434Z,969.51
2022-08-11T06:45:20.733Z,969.49
2022-08-11T06:46:28.217Z,969.54
2022-08-11T06:47:22.333Z,969.54
2022-08-11T06:48:21.599Z,969.56
2022-08-11T06:49:21.937Z,969.58
2022-08-11T06:50:22.241Z,969.60
2022-08-11T06:51:22.531Z,969.61
2022-08-11T06:52:34.332Z,969.64
2022-08-11T06:53:24.129Z,969.54
2022-08-11T06:54:23.379Z,969.60
2022-08-11T06:55:55.777Z,969.59
2022-08-11T06:56:25.017Z,969.58
2022-08-11T06:57:31.515Z,969.61
2022-08-11T06:58:25.528Z,969.59
2022-08-11T06:59:24.782Z,969.55
2022-08-11T07:00:25.101Z,969.58
2022-08-11T07:01:25.462Z,969.58
2022-08-11T07:02:30.535Z,969.60
2022-08-11T07:03:27.040Z,969.59
2022-08-11T07:04:26.297Z,969.61
2022-08-11T07:05:26.588Z,969.57
2022-08-11T07:06:26.886Z,969.60
2022-08-11T07:07:28.199Z,969.59
2022-08-11T07:08:33.858Z,969.60
2022-08-11T07:09:28.728Z,969.60
2022-08-11T07:10:27.950Z,969.60
2022-08-11T07:11:28.229Z,969.65
2022-08-11T07:12:28.692Z,969.62
2022-08-11T07:13:44.461Z,969.63
2022-08-11T07:14:33.869Z,969.56
2022-08-11T07:16:11.673Z,969.58
2022-08-11T07:16:31.157Z,969.57
2022-08-11T07:17:30.075Z,969.62
2022-08-11T07:18:30.581Z,969.56
2022-08-11T07:19:30.737Z,969.57
2022-08-11T07:20:31.082Z,969.61
2022-08-11T07:21:42.746Z,969.63
2022-08-11T07:22:32.692Z,969.63
2022-08-11T07:23:31.876Z,969.60
2022-08-11T07:24:34.473Z,969.59
2022-08-11T07:25:33.361Z,969.64
2022-08-11T07:26:32.597Z,969.62
2022-08-11T07:27:35.607Z,969.64
2022-08-11T07:28:33.203Z,969.63
2022-08-11T07:29:33.381Z,969.67
2022-08-11T07:30:33.660Z,969.65
2022-08-11T07:31:34.004Z,969.66
2022-08-11T07:32:34.312Z,969.65
2022-08-11T07:34:07.326Z,969.67
2022-08-11T07:34:35.919Z,969.67
2022-08-11T07:35:35.202Z,969.70
2022-08-11T07:36:35.538Z,969.66
2022-08-11T07:37:35.840Z,969.66
2022-08-11T07:38:36.146Z,969.68
2022-08-11T07:39:36.502Z,969.67
2022-08-11T07:40:36.773Z,969.64
2022-08-11T07:41:37.100Z,969.58
2022-08-11T07:42:37.533Z,969.61
2022-08-11T07:43:37.712Z,969.59
2022-08-11T07:44:38.042Z,969.59
2022-08-11T07:45:38.314Z,969.59
2022-08-11T07:46:38.623Z,969.56
2022-08-11T07:47:38.966Z,969.58
2022-08-11T07:48:39.259Z,969.62
2022-08-11T07:49:39.575Z,969.64
2022-08-11T07:50:39.861Z,969.58
2022-08-11T07:51:40.136Z,969.58
2022-08-11T07:52:40.773Z,969.60
2022-08-11T07:53:41.732Z,969.62
2022-08-11T07:54:41.922Z,969.63
2022-08-11T07:55:51.837Z,969.63
2022-08-11T07:57:07.177Z,969.60
2022-08-11T07:58:15.017Z,969.67
2022-08-11T07:58:45.588Z,969.63
2022-08-11T08:00:04.323Z,969.63
2022-08-11T08:00:43.650Z,969.63
2022-08-11T08:01:43.133Z,969.62
2022-08-11T08:02:43.216Z,969.64
2022-08-11T08:03:53.998Z,969.61
2022-08-11T08:04:47.377Z,969.62
2022-08-11T08:05:44.124Z,969.66
2022-08-11T08:06:44.412Z,969.67
2022-08-11T08:07:44.722Z,969.67
2022-08-11T08:08:44.984Z,969.67
2022-08-11T08:09:45.262Z,969.65
2022-08-11T08:10:45.567Z,969.62
2022-08-11T08:11:45.860Z,969.62
2022-08-11T08:12:46.189Z,969.64
2022-08-11T08:13:46.486Z,969.67
2022-08-11T08:14:46.750Z,969.66
2022-08-11T08:15:47.045Z,969.67
2022-08-11T08:16:47.367Z,969.69
2022-08-11T08:18:10.098Z,969.63
2022-08-11T08:18:49.033Z,969.64
2022-08-11T08:19:48.259Z,969.65
2022-08-11T08:20:48.557Z,969.65
2022-08-11T08:21:48.857Z,969.65
2022-08-11T08:22:49.580Z,969.65
2022-08-11T08:23:54.025Z,969.64
2022-08-11T08:24:50.811Z,969.66
2022-08-11T08:25:50.045Z,969.70
2022-08-11T08:26:51.878Z,969.67
2022-08-11T08:27:50.663Z,969.65
2022-08-11T08:28:50.955Z,969.69
2022-08-11T08:29:51.214Z,969.66
2022-08-11T08:30:51.483Z,969.65
2022-08-11T08:31:51.785Z,969.61
2022-08-11T08:32:52.100Z,969.60
2022-08-11T08:33:52.423Z,969.59
2022-08-11T08:34:52.722Z,969.60
2022-08-11T08:35:55.634Z,969.60
2022-08-11T08:36:53.243Z,969.61
2022-08-11T08:37:53.617Z,969.64
2022-08-11T08:38:53.826Z,969.63
2022-08-11T08:39:54.184Z,969.59
2022-08-11T08:40:56.283Z,969.65
2022-08-11T08:41:54.766Z,969.63
2022-08-11T08:42:55.055Z,969.58
2022-08-11T08:43:56.412Z,969.63
2022-08-11T08:44:55.643Z,969.59
2022-08-11T08:45:55.946Z,969.63
2022-08-11T08:46:56.244Z,969.61
2022-08-11T08:47:56.507Z,969.57
2022-08-11T08:48:56.818Z,969.60
2022-08-11T08:49:57.121Z,969.62
2022-08-11T08:50:57.410Z,969.59
2022-08-11T08:52:01.927Z,969.58
2022-08-11T08:52:58.983Z,969.61
2022-08-11T08:53:58.448Z,969.57
2022-08-11T08:54:58.446Z,969.62
2022-08-11T08:55:58.709Z,969.59
2022-08-11T08:56:58.982Z,969.58
2022-08-11T08:57:59.261Z,969.58
2022-08-11T08:58:59.559Z,969.59
2022-08-11T08:59:59.858Z,969.57
2022-08-11T09:01:00.242Z,969.56
2022-08-11T09:02:00.426Z,969.59
2022-08-11T09:03:17.287Z,969.58
2022-08-11T09:04:10.562Z,969.56
2022-08-11T09:05:02.185Z,969.56
2022-08-11T09:06:01.417Z,969.59
2022-08-11T09:07:01.711Z,969.54
2022-08-11T09:08:02.040Z,969.50
2022-08-11T09:09:02.337Z,969.53
2022-08-11T09:10:02.667Z,969.49
2022-08-11T09:11:02.962Z,969.53
2022-08-11T09:12:03.228Z,969.50
2022-08-11T09:13:03.533Z,969.49
2022-08-11T09:14:06.689Z,969.54
2022-08-11T09:15:04.100Z,969.52
2022-08-11T09:16:04.400Z,969.55
2022-08-11T09:17:04.692Z,969.58
2022-08-11T09:18:05.015Z,969.57
2022-08-11T09:19:05.353Z,969.54
2022-08-11T09:20:05.794Z,969.57
2022-08-11T09:21:05.900Z,969.56
2022-08-11T09:22:06.195Z,969.53
2022-08-11T09:24:14.752Z,969.53
2022-08-11T09:25:07.988Z,969.50
2022-08-11T09:26:07.259Z,969.51
2022-08-11T09:27:07.549Z,969.49
2022-08-11T09:28:07.848Z,969.53
2022-08-11T09:29:08.243Z,969.51
2022-08-11T09:30:08.413Z,969.50
2022-08-11T09:31:08.684Z,969.50
2022-08-11T09:32:09.064Z,969.50
2022-08-11T09:33:09.254Z,969.53
2022-08-11T09:34:09.558Z,969.54
2022-08-11T09:35:09.823Z,969.56
2022-08-11T09:36:10.128Z,969.50
2022-08-11T09:37:10.425Z,969.58
2022-08-11T09:38:10.739Z,969.59
2022-08-11T09:39:11.099Z,969.60
2022-08-11T09:40:11.300Z,969.60
2022-08-11T09:41:11.588Z,969.55
2022-08-11T09:42:16.551Z,969.53
2022-08-11T09:43:13.240Z,969.54
2022-08-11T09:44:12.495Z,969.52
2022-08-11T09:45:12.789Z,969.47
2022-08-11T09:46:13.127Z,969.51
2022-08-11T09:47:13.451Z,969.50
2022-08-11T09:48:13.775Z,969.49
2022-08-11T09:49:14.060Z,969.53
2022-08-11T09:50:14.323Z,969.50
2022-08-11T09:51:14.614Z,969.54
2022-08-11T09:52:14.914Z,969.59
2022-08-11T09:53:36.218Z,969.54
2022-08-11T09:54:16.529Z,969.56
2022-08-11T09:55:15.770Z,969.54
2022-08-11T09:56:16.037Z,969.54
2022-08-11T09:57:16.310Z,969.56
2022-08-11T09:58:41.621Z,969.53
2022-08-11T09:59:17.895Z,969.53
2022-08-11T10:00:17.131Z,969.47
2022-08-11T10:01:17.486Z,969.51
2022-08-11T10:02:17.677Z,969.48
2022-08-11T10:03:18.037Z,969.47
2022-08-11T10:04:18.190Z,969.46
2022-08-11T10:05:18.492Z,969.47
2022-08-11T10:06:18.776Z,969.47
2022-08-11T10:07:19.085Z,969.50
2022-08-11T10:08:19.379Z,969.50
2022-08-11T10:09:19.672Z,969.48
2022-08-11T10:10:19.956Z,969.47
2022-08-11T10:11:20.234Z,969.45
2022-08-11T10:12:20.531Z,969.51
2022-08-11T10:14:10.067Z,969.45
2022-08-11T10:14:32.760Z,969.52
2022-08-11T10:15:22.481Z,969.53
2022-08-11T10:16:21.705Z,969.52
2022-08-11T10:17:22.020Z,969.51
2022-08-11T10:18:22.318Z,969.53
2022-08-11T10:19:22.628Z,969.48
2022-08-11T10:20:25.849Z,969.44
2022-08-11T10:21:23.192Z,969.43
2022-08-11T10:22:23.502Z,969.43
2022-08-11T10:23:23.785Z,969.44
2022-08-11T10:24:24.094Z,969.43
2022-08-11T10:25:24.387Z,969.39
2022-08-11T10:26:24.686Z,969.36
2022-08-11T10:27:28.983Z,969.36
2022-08-11T10:28:33.806Z,969.38
2022-08-11T10:29:26.626Z,969.48
2022-08-11T10:30:26.833Z,969.39
2022-08-11T10:31:27.533Z,969.45
2022-08-11T10:32:29.541Z,969.42
2022-08-11T10:33:36.596Z,969.42
2022-08-11T10:34:29.203Z,969.40
2022-08-11T10:35:27.285Z,969.43
2022-08-11T10:36:27.597Z,969.44
2022-08-11T10:38:06.183Z,969.43
2022-08-11T10:38:29.177Z,969.41
2022-08-11T10:39:28.507Z,969.39
2022-08-11T10:40:28.722Z,969.44
2022-08-11T10:41:29.049Z,969.45
2022-08-11T10:42:47.668Z,969.39
2022-08-11T10:44:02.568Z,969.40
2022-08-11T10:44:30.856Z,969.43
2022-08-11T10:45:30.078Z,969.42
2022-08-11T10:46:30.769Z,969.39
2022-08-11T10:47:30.619Z,969.38
2022-08-11T10:48:30.936Z,969.34
2022-08-11T10:49:31.220Z,969.36
2022-08-11T10:50:31.518Z,969.36
2022-08-11T10:51:50.747Z,969.44
2022-08-11T10:52:33.114Z,969.35
2022-08-11T10:53:32.405Z,969.31
2022-08-11T10:54:32.691Z,969.33
2022-08-11T10:55:32.994Z,969.35
2022-08-11T10:56:34.060Z,969.34
2022-08-11T10:57:33.782Z,969.35
2022-08-11T10:58:33.944Z,969.42
2022-08-11T10:59:34.238Z,969.38
2022-08-11T11:00:34.520Z,969.39
2022-08-11T11:01:34.834Z,969.30
2022-08-11T11:02:35.051Z,969.32
2022-08-11T11:03:35.380Z,969.41
2022-08-11T11:04:35.709Z,969.36
2022-08-11T11:05:36.007Z,969.27
2022-08-11T11:06:36.300Z,969.28
2022-08-11T11:07:36.594Z,969.24
2022-08-11T11:08:37.950Z,969.26
2022-08-11T11:09:37.201Z,969.28
2022-08-11T11:10:37.505Z,969.32
2022-08-11T11:11:37.794Z,969.34
2022-08-11T11:12:38.329Z,969.35
2022-08-11T11:13:38.441Z,969.36
2022-08-11T11:14:46.300Z,969.32
2022-08-11T11:15:39.960Z,969.33
2022-08-11T11:16:39.301Z,969.31
2022-08-11T11:17:39.575Z,969.33
2022-08-11T11:18:39.888Z,969.29
2022-08-11T11:19:40.177Z,969.25
2022-08-11T11:20:45.059Z,969.26
2022-08-11T11:21:42.427Z,969.22
2022-08-11T11:22:41.085Z,969.25
2022-08-11T11:23:41.205Z,969.21
2022-08-11T11:24:41.544Z,969.17
2022-08-11T11:25:41.827Z,969.21
2022-08-11T11:26:42.162Z,969.13
2022-08-11T11:27:46.318Z,969.20
2022-08-11T11:28:42.732Z,969.19
2022-08-11T11:29:43.032Z,969.24
2022-08-11T11:30:43.356Z,969.25
2022-08-11T11:31:43.674Z,969.23
2022-08-11T11:32:49.067Z,969.26
2022-08-11T11:34:06.879Z,969.24
2022-08-11T11:34:52.827Z,969.21
2022-08-11T11:35:45.855Z,969.14
2022-08-11T11:36:45.096Z,969.19
2022-08-11T11:38:04.459Z,969.17
2022-08-11T11:38:46.675Z,969.18
2022-08-11T11:39:46.005Z,969.16
2022-08-11T11:40:46.195Z,969.16
2022-08-11T11:41:46.486Z,969.16
2022-08-11T11:42:46.763Z,969.14
2022-08-11T11:43:47.065Z,969.17
2022-08-11T11:44:47.378Z,969.16
2022-08-11T11:45:47.672Z,969.16
2022-08-11T11:46:47.966Z,969.11
2022-08-11T11:47:48.244Z,969.11
2022-08-11T11:48:48.554Z,969.09
2022-08-11T11:49:48.857Z,969.07
2022-08-11T11:50:49.175Z,969.08
2022-08-11T11:51:50.210Z,969.07
2022-08-11T11:52:49.703Z,969.02
2022-08-11T11:53:50.015Z,969.02
2022-08-11T11:54:50.490Z,968.99
2022-08-11T11:55:50.633Z,968.99
2022-08-11T11:56:50.921Z,969.02
2022-08-11T11:57:59.016Z,968.98
2022-08-11T11:58:54.549Z,968.97
2022-08-11T11:59:51.878Z,968.95
2022-08-11T12:00:52.170Z,968.95
2022-08-11T12:01:52.817Z,968.98
2022-08-11T12:02:52.837Z,968.89
2022-08-11T12:03:53.071Z,968.97
2022-08-11T12:04:53.360Z,968.94
2022-08-11T12:05:53.637Z,968.90
2022-08-11T12:06:53.931Z,968.91
2022-08-11T12:07:58.724Z,968.87
2022-08-11T12:08:55.568Z,968.82
2022-08-11T12:09:54.808Z,968.86
2022-08-11T12:10:55.090Z,968.84
2022-08-11T12:11:55.389Z,968.84
2022-08-11T12:12:55.667Z,968.84
2022-08-11T12:13:55.986Z,968.82
2022-08-11T12:14:56.353Z,968.83
2022-08-11T12:16:33.465Z,968.84
2022-08-11T12:16:57.819Z,968.86
2022-08-11T12:17:57.061Z,968.81
2022-08-11T12:18:57.388Z,968.77
2022-08-11T12:19:57.713Z,968.79
2022-08-11T12:20:58.002Z,968.79
2022-08-11T12:21:59.457Z,968.73
2022-08-11T12:22:58.568Z,968.74
2022-08-11T12:24:03.689Z,968.71
2022-08-11T12:25:00.152Z,968.79
2022-08-11T12:26:23.426Z,968.76
2022-08-11T12:27:15.228Z,968.74
2022-08-11T12:28:00.907Z,968.71
2022-08-11T12:29:00.260Z,968.73
2022-08-11T12:30:00.539Z,968.71
2022-08-11T12:31:00.835Z,968.65
2022-08-11T12:32:01.170Z,968.67
2022-08-11T12:33:01.463Z,968.66
2022-08-11T12:34:01.746Z,968.60
2022-08-11T12:35:02.039Z,968.62
2022-08-11T12:36:02.374Z,968.58
2022-08-11T12:37:02.673Z,968.59
2022-08-11T12:38:10.829Z,968.56
2022-08-11T12:39:11.375Z,968.55
2022-08-11T12:40:16.552Z,968.51
2022-08-11T12:41:15.745Z,968.55
2022-08-11T12:42:05.114Z,968.56
2022-08-11T12:43:08.294Z,968.50
2022-08-11T12:44:05.649Z,968.53
2022-08-11T12:45:04.900Z,968.59
2022-08-11T12:46:06.172Z,968.53
2022-08-11T12:47:05.511Z,968.49
2022-08-11T12:48:57.497Z,968.53
2022-08-11T12:49:07.103Z,968.52
2022-08-11T12:50:06.363Z,968.52
2022-08-11T12:51:07.639Z,968.50
2022-08-11T12:52:13.327Z,968.47
2022-08-11T12:53:08.281Z,968.48
2022-08-11T12:54:07.503Z,968.46
2022-08-11T12:55:12.967Z,968.46
2022-08-11T12:56:09.101Z,968.51
2022-08-11T12:57:08.477Z,968.42
2022-08-11T12:58:08.776Z,968.43
2022-08-11T12:59:09.074Z,968.46
2022-08-11T13:00:09.363Z,968.39
2022-08-11T13:01:12.757Z,968.44
2022-08-11T13:02:09.960Z,968.42
2022-08-11T13:03:10.253Z,968.42
2022-08-11T13:04:10.597Z,968.44
2022-08-11T13:05:10.895Z,968.42
2022-08-11T13:06:11.186Z,968.43
2022-08-11T13:07:11.480Z,968.45
2022-08-11T13:08:11.736Z,968.41
2022-08-11T13:09:12.034Z,968.42
2022-08-11T13:10:16.844Z,968.40
2022-08-11T13:11:12.636Z,968.40
2022-08-11T13:12:12.906Z,968.36
2022-08-11T13:13:54.907Z,968.40
2022-08-11T13:14:15.266Z,968.38
2022-08-11T13:15:13.726Z,968.36
2022-08-11T13:16:14.050Z,968.34
2022-08-11T13:17:14.339Z,968.32
2022-08-11T13:18:14.616Z,968.29
2022-08-11T13:19:14.936Z,968.24
2022-08-11T13:20:15.229Z,968.26
2022-08-11T13:21:20.716Z,968.26
2022-08-11T13:22:16.818Z,968.21
2022-08-11T13:23:16.039Z,968.25
2022-08-11T13:24:16.363Z,968.24
2022-08-11T13:25:16.661Z,968.18
2022-08-11T13:26:16.980Z,968.18
2022-08-11T13:27:17.263Z,968.17
2022-08-11T13:28:17.547Z,968.12
2022-08-11T13:29:17.892Z,968.16
2022-08-11T13:30:18.184Z,968.14
2022-08-11T13:31:18.467Z,968.12
2022-08-11T13:32:18.762Z,968.11
2022-08-11T13:33:19.040Z,968.06
2022-08-11T13:34:19.851Z,968.10
2022-08-11T13:35:19.602Z,968.12
2022-08-11T13:36:19.890Z,968.15
2022-08-11T13:37:20.164Z,968.09
2022-08-11T13:38:21.494Z,968.04
2022-08-11T13:39:20.809Z,968.04
2022-08-11T13:40:33.315Z,968.04
2022-08-11T13:41:22.350Z,968.01
2022-08-11T13:42:21.591Z,967.98
2022-08-11T13:43:21.874Z,967.94
2022-08-11T13:44:25.888Z,967.94
2022-08-11T13:45:22.463Z,967.92
2022-08-11T13:46:22.754Z,967.94
2022-08-11T13:47:22.967Z,967.92
2022-08-11T13:48:23.306Z,967.92
2022-08-11T13:49:23.599Z,967.89
2022-08-11T13:50:23.869Z,967.88
2022-08-11T13:51:24.161Z,967.88
2022-08-11T13:52:25.464Z,967.93
2022-08-11T13:53:24.692Z,967.94
2022-08-11T13:54:24.981Z,967.85
2022-08-11T13:55:51.066Z,967.86
2022-08-11T13:56:26.551Z,967.87
2022-08-11T13:58:08.621Z,967.86
2022-08-11T13:58:40.185Z,967.85
2022-08-11T13:59:31.153Z,967.81
2022-08-11T14:00:28.455Z,967.77
2022-08-11T14:02:22.364Z,967.75
2022-08-11T14:02:30.219Z,967.74
2022-08-11T14:03:27.547Z,967.73
2022-08-11T14:04:32.277Z,967.71
2022-08-11T14:05:28.150Z,967.69
2022-08-11T14:06:28.427Z,967.70
2022-08-11T14:07:28.755Z,967.75
2022-08-11T14:08:37.670Z,967.71
2022-08-11T14:09:30.324Z,967.69
2022-08-11T14:10:29.667Z,967.67
2022-08-11T14:12:23.828Z,967.67
2022-08-11T14:12:31.299Z,967.60
2022-08-11T14:13:42.343Z,967.65
2022-08-11T14:14:31.825Z,967.60
2022-08-11T14:15:31.060Z,967.65
2022-08-11T14:16:31.342Z,967.62
2022-08-11T14:17:47.831Z,967.61
2022-08-11T14:18:32.983Z,967.63
2022-08-11T14:19:32.254Z,967.64
2022-08-11T14:20:39.335Z,967.65
2022-08-11T14:21:33.818Z,967.63
2022-08-11T14:22:33.205Z,967.62
2022-08-11T14:23:33.528Z,967.62
2022-08-11T14:24:33.956Z,967.60
2022-08-11T14:26:01.112Z,967.54
2022-08-11T14:26:35.423Z,967.53
2022-08-11T14:28:34.144Z,967.58
2022-08-11T14:28:41.500Z,967.56
2022-08-11T14:29:48.827Z,967.58
2022-08-11T14:30:36.651Z,967.53
2022-08-11T14:31:36.003Z,967.53
2022-08-11T14:32:53.142Z,967.55
2022-08-11T14:33:58.355Z,967.56
2022-08-11T14:34:37.957Z,967.59
2022-08-11T14:35:37.181Z,967.61
2022-08-11T14:36:38.463Z,967.58